sensor_id;sensor_type;location;lat;lon;timestamp;P1;durP1;ratioP1;P2;durP2;ratioP2
86209;SDS011;76865;50.756;3.366;2024-03-08T00:02:19;8.68;;;5.55;;
86209;SDS011;76865;50.756;3.366;2024-03-08T00:04:46;9.43;;;5.38;;
86209;SDS011;76865;50.756;3.366;2024-03-08T00:07:13;8.57;;;5.32;;
86209;SDS011;76865;50.756;3.366;2024-03-08T00:09:40;8.25;;;5.32;;
86209;SDS011;76865;50.756;3.366;2024-03-08T00:12:07;8.33;;;5.43;;
86209;SDS011;76865;50.756;3.366;2024-03-08T00:14:35;9.27;;;5.35;;
86209;SDS011;76865;50.756;3.366;2024-03-08T00:17:02;8.88;;;5.32;;
86209;SDS011;76865;50.756;3.366;2024-03-08T00:19:31;8.40;;;5.40;;
86209;SDS011;76865;50.756;3.366;2024-03-08T00:21:58;8.23;;;5.20;;
86209;SDS011;76865;50.756;3.366;2024-03-08T00:24:27;8.63;;;5.30;;
86209;SDS011;76865;50.756;3.366;2024-03-08T00:26:54;8.85;;;5.32;;
86209;SDS011;76865;50.756;3.366;2024-03-08T00:29:22;8.60;;;5.45;;
86209;SDS011;76865;50.756;3.366;2024-03-08T00:31:49;9.20;;;5.30;;
86209;SDS011;76865;50.756;3.366;2024-03-08T00:34:16;8.10;;;5.20;;
86209;SDS011;76865;50.756;3.366;2024-03-08T00:36:44;9.23;;;5.07;;
86209;SDS011;76865;50.756;3.366;2024-03-08T00:39:11;9.27;;;5.60;;
86209;SDS011;76865;50.756;3.366;2024-03-08T00:41:38;8.07;;;4.65;;
86209;SDS011;76865;50.756;3.366;2024-03-08T00:44:05;8.70;;;4.93;;
86209;SDS011;76865;50.756;3.366;2024-03-08T00:46:32;8.85;;;5.55;;
86209;SDS011;76865;50.756;3.366;2024-03-08T00:48:59;7.93;;;5.27;;
86209;SDS011;76865;50.756;3.366;2024-03-08T00:51:26;8.80;;;5.35;;
86209;SDS011;76865;50.756;3.366;2024-03-08T00:53:55;8.65;;;5.47;;
86209;SDS011;76865;50.756;3.366;2024-03-08T00:56:23;9.93;;;5.30;;
86209;SDS011;76865;50.756;3.366;2024-03-08T00:58:50;8.70;;;5.20;;
86209;SDS011;76865;50.756;3.366;2024-03-08T01:01:18;7.63;;;4.87;;
86209;SDS011;76865;50.756;3.366;2024-03-08T01:03:45;8.02;;;5.22;;
86209;SDS011;76865;50.756;3.366;2024-03-08T01:06:12;8.30;;;5.18;;
86209;SDS011;76865;50.756;3.366;2024-03-08T01:08:39;8.88;;;4.82;;
86209;SDS011;76865;50.756;3.366;2024-03-08T01:11:09;8.23;;;5.03;;
86209;SDS011;76865;50.756;3.366;2024-03-08T01:13:36;9.27;;;5.50;;
86209;SDS011;76865;50.756;3.366;2024-03-08T01:16:04;8.52;;;5.03;;
86209;SDS011;76865;50.756;3.366;2024-03-08T01:18:31;8.48;;;5.30;;
86209;SDS011;76865;50.756;3.366;2024-03-08T01:20:58;9.02;;;5.40;;
86209;SDS011;76865;50.756;3.366;2024-03-08T01:23:25;9.43;;;6.10;;
86209;SDS011;76865;50.756;3.366;2024-03-08T01:25:52;8.83;;;5.33;;
86209;SDS011;76865;50.756;3.366;2024-03-08T01:28:24;8.93;;;5.32;;
86209;SDS011;76865;50.756;3.366;2024-03-08T01:30:51;8.48;;;5.20;;
86209;SDS011;76865;50.756;3.366;2024-03-08T01:33:21;9.25;;;5.60;;
86209;SDS011;76865;50.756;3.366;2024-03-08T01:35:48;8.18;;;5.65;;
86209;SDS011;76865;50.756;3.366;2024-03-08T01:38:15;7.90;;;5.23;;
86209;SDS011;76865;50.756;3.366;2024-03-08T01:40:42;9.70;;;5.60;;
86209;SDS011;76865;50.756;3.366;2024-03-08T01:43:16;8.45;;;5.13;;
86209;SDS011;76865;50.756;3.366;2024-03-08T01:45:45;8.55;;;5.60;;
86209;SDS011;76865;50.756;3.366;2024-03-08T01:48:12;8.25;;;5.38;;
86209;SDS011;76865;50.756;3.366;2024-03-08T01:50:40;8.00;;;4.77;;
86209;SDS011;76865;50.756;3.366;2024-03-08T01:53:08;8.30;;;5.13;;
86209;SDS011;76865;50.756;3.366;2024-03-08T01:55:37;8.75;;;5.50;;
86209;SDS011;76865;50.756;3.366;2024-03-08T01:58:04;9.15;;;5.38;;
86209;SDS011;76865;50.756;3.366;2024-03-08T02:00:31;8.35;;;5.20;;
86209;SDS011;76865;50.756;3.366;2024-03-08T02:03:00;10.57;;;6.10;;
86209;SDS011;76865;50.756;3.366;2024-03-08T02:05:28;9.30;;;5.78;;
86209;SDS011;76865;50.756;3.366;2024-03-08T02:07:55;8.40;;;5.45;;
86209;SDS011;76865;50.756;3.366;2024-03-08T02:10:22;8.30;;;5.45;;
86209;SDS011;76865;50.756;3.366;2024-03-08T02:12:49;8.68;;;5.38;;
86209;SDS011;76865;50.756;3.366;2024-03-08T02:15:17;9.60;;;5.37;;
86209;SDS011;76865;50.756;3.366;2024-03-08T02:17:45;9.07;;;5.57;;
86209;SDS011;76865;50.756;3.366;2024-03-08T02:20:14;8.07;;;4.95;;
86209;SDS011;76865;50.756;3.366;2024-03-08T02:22:42;8.85;;;5.53;;
86209;SDS011;76865;50.756;3.366;2024-03-08T02:25:09;10.00;;;5.40;;
86209;SDS011;76865;50.756;3.366;2024-03-08T02:27:36;8.37;;;4.90;;
86209;SDS011;76865;50.756;3.366;2024-03-08T02:30:03;9.20;;;5.30;;
86209;SDS011;76865;50.756;3.366;2024-03-08T02:32:31;8.07;;;4.97;;
86209;SDS011;76865;50.756;3.366;2024-03-08T02:34:58;9.10;;;5.00;;
86209;SDS011;76865;50.756;3.366;2024-03-08T02:37:26;9.48;;;5.40;;
86209;SDS011;76865;50.756;3.366;2024-03-08T02:39:56;7.90;;;5.00;;
86209;SDS011;76865;50.756;3.366;2024-03-08T02:42:25;7.82;;;4.97;;
86209;SDS011;76865;50.756;3.366;2024-03-08T02:44:52;9.32;;;5.20;;
86209;SDS011;76865;50.756;3.366;2024-03-08T02:47:19;9.13;;;5.72;;
86209;SDS011;76865;50.756;3.366;2024-03-08T02:49:46;8.48;;;5.22;;
86209;SDS011;76865;50.756;3.366;2024-03-08T02:52:13;8.73;;;4.97;;
86209;SDS011;76865;50.756;3.366;2024-03-08T02:54:42;9.32;;;5.30;;
86209;SDS011;76865;50.756;3.366;2024-03-08T02:57:12;9.27;;;5.43;;
86209;SDS011;76865;50.756;3.366;2024-03-08T02:59:40;8.32;;;5.60;;
86209;SDS011;76865;50.756;3.366;2024-03-08T03:02:07;9.25;;;5.53;;
86209;SDS011;76865;50.756;3.366;2024-03-08T03:04:36;8.83;;;5.10;;
86209;SDS011;76865;50.756;3.366;2024-03-08T03:07:03;11.27;;;6.03;;
86209;SDS011;76865;50.756;3.366;2024-03-08T03:09:30;7.93;;;5.15;;
86209;SDS011;76865;50.756;3.366;2024-03-08T03:11:58;8.57;;;5.05;;
86209;SDS011;76865;50.756;3.366;2024-03-08T03:14:26;8.73;;;5.00;;
86209;SDS011;76865;50.756;3.366;2024-03-08T03:16:53;9.03;;;5.60;;
86209;SDS011;76865;50.756;3.366;2024-03-08T03:19:21;8.85;;;5.32;;
86209;SDS011;76865;50.756;3.366;2024-03-08T03:21:47;8.50;;;4.95;;
86209;SDS011;76865;50.756;3.366;2024-03-08T03:24:14;9.07;;;5.30;;
86209;SDS011;76865;50.756;3.366;2024-03-08T03:26:42;9.13;;;5.07;;
86209;SDS011;76865;50.756;3.366;2024-03-08T03:29:09;9.60;;;5.43;;
86209;SDS011;76865;50.756;3.366;2024-03-08T03:31:38;9.38;;;5.13;;
86209;SDS011;76865;50.756;3.366;2024-03-08T03:34:06;8.63;;;5.13;;
86209;SDS011;76865;50.756;3.366;2024-03-08T03:36:34;8.25;;;5.00;;
86209;SDS011;76865;50.756;3.366;2024-03-08T03:39:03;9.85;;;5.38;;
86209;SDS011;76865;50.756;3.366;2024-03-08T03:41:35;8.90;;;5.70;;
86209;SDS011;76865;50.756;3.366;2024-03-08T03:44:03;9.57;;;5.40;;
86209;SDS011;76865;50.756;3.366;2024-03-08T03:46:30;9.50;;;5.60;;
86209;SDS011;76865;50.756;3.366;2024-03-08T03:48:58;8.40;;;4.97;;
86209;SDS011;76865;50.756;3.366;2024-03-08T03:51:25;9.05;;;5.13;;
86209;SDS011;76865;50.756;3.366;2024-03-08T03:53:52;8.63;;;5.03;;
86209;SDS011;76865;50.756;3.366;2024-03-08T03:56:19;9.90;;;5.32;;
86209;SDS011;76865;50.756;3.366;2024-03-08T03:58:51;8.95;;;5.38;;
86209;SDS011;76865;50.756;3.366;2024-03-08T04:01:18;9.00;;;5.70;;
86209;SDS011;76865;50.756;3.366;2024-03-08T04:03:45;9.63;;;5.70;;
86209;SDS011;76865;50.756;3.366;2024-03-08T04:06:14;9.43;;;5.07;;
86209;SDS011;76865;50.756;3.366;2024-03-08T04:08:41;8.65;;;5.13;;
86209;SDS011;76865;50.756;3.366;2024-03-08T04:11:08;11.27;;;5.97;;
86209;SDS011;76865;50.756;3.366;2024-03-08T04:13:35;9.00;;;5.55;;
86209;SDS011;76865;50.756;3.366;2024-03-08T04:16:03;9.95;;;5.88;;
86209;SDS011;76865;50.756;3.366;2024-03-08T04:18:33;7.83;;;4.93;;
86209;SDS011;76865;50.756;3.366;2024-03-08T04:21:01;8.98;;;5.28;;
86209;SDS011;76865;50.756;3.366;2024-03-08T04:23:29;9.18;;;5.30;;
86209;SDS011;76865;50.756;3.366;2024-03-08T04:25:55;10.00;;;5.55;;
86209;SDS011;76865;50.756;3.366;2024-03-08T04:28:23;9.75;;;5.97;;
86209;SDS011;76865;50.756;3.366;2024-03-08T04:30:52;9.77;;;5.90;;
86209;SDS011;76865;50.756;3.366;2024-03-08T04:33:20;9.00;;;5.28;;
86209;SDS011;76865;50.756;3.366;2024-03-08T04:35:47;9.23;;;5.47;;
86209;SDS011;76865;50.756;3.366;2024-03-08T04:38:14;10.27;;;5.80;;
86209;SDS011;76865;50.756;3.366;2024-03-08T04:40:42;10.93;;;5.57;;
86209;SDS011;76865;50.756;3.366;2024-03-08T04:43:09;8.77;;;5.60;;
86209;SDS011;76865;50.756;3.366;2024-03-08T04:45:36;8.65;;;5.55;;
86209;SDS011;76865;50.756;3.366;2024-03-08T04:48:05;9.85;;;5.82;;
86209;SDS011;76865;50.756;3.366;2024-03-08T04:50:34;9.85;;;5.60;;
86209;SDS011;76865;50.756;3.366;2024-03-08T04:53:01;9.32;;;5.80;;
86209;SDS011;76865;50.756;3.366;2024-03-08T04:55:29;9.17;;;5.50;;
86209;SDS011;76865;50.756;3.366;2024-03-08T04:57:57;8.77;;;5.22;;
86209;SDS011;76865;50.756;3.366;2024-03-08T05:00:24;8.80;;;5.40;;
86209;SDS011;76865;50.756;3.366;2024-03-08T05:02:51;7.97;;;5.00;;
86209;SDS011;76865;50.756;3.366;2024-03-08T05:05:18;9.35;;;5.38;;
86209;SDS011;76865;50.756;3.366;2024-03-08T05:07:46;8.77;;;5.37;;
86209;SDS011;76865;50.756;3.366;2024-03-08T05:10:14;8.65;;;5.57;;
86209;SDS011;76865;50.756;3.366;2024-03-08T05:12:43;9.30;;;5.68;;
86209;SDS011;76865;50.756;3.366;2024-03-08T05:15:11;10.07;;;6.13;;
86209;SDS011;76865;50.756;3.366;2024-03-08T05:17:38;8.73;;;5.60;;
86209;SDS011;76865;50.756;3.366;2024-03-08T05:20:06;8.63;;;5.60;;
86209;SDS011;76865;50.756;3.366;2024-03-08T05:22:38;9.45;;;5.70;;
86209;SDS011;76865;50.756;3.366;2024-03-08T05:25:06;9.48;;;5.53;;
86209;SDS011;76865;50.756;3.366;2024-03-08T05:27:34;11.10;;;5.72;;
86209;SDS011;76865;50.756;3.366;2024-03-08T05:30:01;9.25;;;5.93;;
86209;SDS011;76865;50.756;3.366;2024-03-08T05:32:30;9.33;;;5.97;;
86209;SDS011;76865;50.756;3.366;2024-03-08T05:34:57;8.98;;;5.53;;
86209;SDS011;76865;50.756;3.366;2024-03-08T05:37:24;9.05;;;5.65;;
86209;SDS011;76865;50.756;3.366;2024-03-08T05:39:51;9.75;;;5.70;;
86209;SDS011;76865;50.756;3.366;2024-03-08T05:42:20;8.52;;;5.82;;
86209;SDS011;76865;50.756;3.366;2024-03-08T05:44:47;10.30;;;6.00;;
86209;SDS011;76865;50.756;3.366;2024-03-08T05:47:15;9.75;;;5.85;;
86209;SDS011;76865;50.756;3.366;2024-03-08T05:49:45;9.65;;;5.97;;
86209;SDS011;76865;50.756;3.366;2024-03-08T05:52:12;9.55;;;5.90;;
86209;SDS011;76865;50.756;3.366;2024-03-08T05:54:40;9.43;;;5.97;;
86209;SDS011;76865;50.756;3.366;2024-03-08T05:57:07;11.03;;;6.07;;
86209;SDS011;76865;50.756;3.366;2024-03-08T05:59:34;10.88;;;6.25;;
86209;SDS011;76865;50.756;3.366;2024-03-08T06:02:01;9.93;;;6.45;;
86209;SDS011;76865;50.756;3.366;2024-03-08T06:04:29;8.68;;;5.55;;
86209;SDS011;76865;50.756;3.366;2024-03-08T06:06:57;10.07;;;5.65;;
86209;SDS011;76865;50.756;3.366;2024-03-08T06:09:24;9.00;;;6.03;;
86209;SDS011;76865;50.756;3.366;2024-03-08T06:11:51;9.63;;;5.97;;
86209;SDS011;76865;50.756;3.366;2024-03-08T06:14:19;10.13;;;5.80;;
86209;SDS011;76865;50.756;3.366;2024-03-08T06:16:46;10.40;;;6.10;;
86209;SDS011;76865;50.756;3.366;2024-03-08T06:19:15;9.52;;;5.82;;
86209;SDS011;76865;50.756;3.366;2024-03-08T06:21:42;9.83;;;6.47;;
86209;SDS011;76865;50.756;3.366;2024-03-08T06:24:12;12.48;;;6.50;;
86209;SDS011;76865;50.756;3.366;2024-03-08T06:26:40;9.32;;;6.25;;
86209;SDS011;76865;50.756;3.366;2024-03-08T06:29:08;14.48;;;6.78;;
86209;SDS011;76865;50.756;3.366;2024-03-08T06:31:35;13.77;;;6.80;;
86209;SDS011;76865;50.756;3.366;2024-03-08T06:34:04;11.20;;;6.50;;
86209;SDS011;76865;50.756;3.366;2024-03-08T06:36:33;10.30;;;6.45;;
86209;SDS011;76865;50.756;3.366;2024-03-08T06:39:00;10.75;;;6.63;;
86209;SDS011;76865;50.756;3.366;2024-03-08T06:41:28;12.73;;;7.00;;
86209;SDS011;76865;50.756;3.366;2024-03-08T06:43:57;13.40;;;6.75;;
86209;SDS011;76865;50.756;3.366;2024-03-08T06:46:25;12.10;;;6.67;;
86209;SDS011;76865;50.756;3.366;2024-03-08T06:48:52;12.48;;;6.28;;
86209;SDS011;76865;50.756;3.366;2024-03-08T06:51:19;13.90;;;6.57;;
86209;SDS011;76865;50.756;3.366;2024-03-08T06:53:46;10.60;;;6.30;;
86209;SDS011;76865;50.756;3.366;2024-03-08T06:56:14;17.70;;;6.30;;
86209;SDS011;76865;50.756;3.366;2024-03-08T06:58:43;13.97;;;7.93;;
86209;SDS011;76865;50.756;3.366;2024-03-08T07:01:10;14.90;;;9.35;;
86209;SDS011;76865;50.756;3.366;2024-03-08T07:03:41;13.65;;;8.10;;
86209;SDS011;76865;50.756;3.366;2024-03-08T07:06:09;12.82;;;7.43;;
86209;SDS011;76865;50.756;3.366;2024-03-08T07:08:37;11.80;;;6.97;;
86209;SDS011;76865;50.756;3.366;2024-03-08T07:11:05;12.43;;;7.30;;
86209;SDS011;76865;50.756;3.366;2024-03-08T07:13:31;11.32;;;7.18;;
86209;SDS011;76865;50.756;3.366;2024-03-08T07:16:00;9.90;;;6.20;;
86209;SDS011;76865;50.756;3.366;2024-03-08T07:18:27;10.23;;;5.75;;
86209;SDS011;76865;50.756;3.366;2024-03-08T07:20:55;9.80;;;6.05;;
86209;SDS011;76865;50.756;3.366;2024-03-08T07:23:22;9.70;;;6.37;;
86209;SDS011;76865;50.756;3.366;2024-03-08T07:26:03;12.93;;;6.43;;
86209;SDS011;76865;50.756;3.366;2024-03-08T07:28:30;10.77;;;6.35;;
86209;SDS011;76865;50.756;3.366;2024-03-08T07:30:57;9.20;;;5.47;;
86209;SDS011;76865;50.756;3.366;2024-03-08T07:33:39;10.20;;;6.00;;
86209;SDS011;76865;50.756;3.366;2024-03-08T07:36:06;10.03;;;5.80;;
86209;SDS011;76865;50.756;3.366;2024-03-08T07:38:34;9.23;;;5.88;;
86209;SDS011;76865;50.756;3.366;2024-03-08T07:41:01;11.98;;;5.97;;
86209;SDS011;76865;50.756;3.366;2024-03-08T07:43:28;9.63;;;6.03;;
86209;SDS011;76865;50.756;3.366;2024-03-08T07:45:54;10.55;;;6.00;;
86209;SDS011;76865;50.756;3.366;2024-03-08T07:48:21;9.50;;;5.50;;
86209;SDS011;76865;50.756;3.366;2024-03-08T07:50:51;9.15;;;5.60;;
86209;SDS011;76865;50.756;3.366;2024-03-08T07:53:18;10.15;;;5.65;;
86209;SDS011;76865;50.756;3.366;2024-03-08T07:55:45;10.40;;;5.93;;
86209;SDS011;76865;50.756;3.366;2024-03-08T07:58:12;9.02;;;5.65;;
86209;SDS011;76865;50.756;3.366;2024-03-08T08:00:39;9.70;;;5.87;;
86209;SDS011;76865;50.756;3.366;2024-03-08T08:03:08;8.85;;;5.28;;
86209;SDS011;76865;50.756;3.366;2024-03-08T08:05:35;11.32;;;5.78;;
86209;SDS011;76865;50.756;3.366;2024-03-08T08:08:07;11.75;;;6.28;;
86209;SDS011;76865;50.756;3.366;2024-03-08T08:10:36;10.57;;;5.75;;
86209;SDS011;76865;50.756;3.366;2024-03-08T08:13:03;9.40;;;5.50;;
86209;SDS011;76865;50.756;3.366;2024-03-08T08:15:30;9.23;;;5.90;;
86209;SDS011;76865;50.756;3.366;2024-03-08T08:17:59;9.48;;;5.20;;
86209;SDS011;76865;50.756;3.366;2024-03-08T08:20:28;10.20;;;5.63;;
86209;SDS011;76865;50.756;3.366;2024-03-08T08:22:55;9.50;;;5.45;;
86209;SDS011;76865;50.756;3.366;2024-03-08T08:25:24;10.13;;;5.93;;
86209;SDS011;76865;50.756;3.366;2024-03-08T08:27:51;8.88;;;5.68;;
86209;SDS011;76865;50.756;3.366;2024-03-08T08:30:19;8.60;;;5.32;;
86209;SDS011;76865;50.756;3.366;2024-03-08T08:32:46;8.93;;;5.20;;
86209;SDS011;76865;50.756;3.366;2024-03-08T08:35:14;8.45;;;5.50;;
86209;SDS011;76865;50.756;3.366;2024-03-08T08:37:41;8.27;;;5.33;;
86209;SDS011;76865;50.756;3.366;2024-03-08T08:40:08;9.23;;;5.20;;
86209;SDS011;76865;50.756;3.366;2024-03-08T08:42:41;9.05;;;5.40;;
86209;SDS011;76865;50.756;3.366;2024-03-08T08:45:08;10.63;;;5.32;;
86209;SDS011;76865;50.756;3.366;2024-03-08T08:47:36;10.15;;;5.70;;
86209;SDS011;76865;50.756;3.366;2024-03-08T08:50:03;9.27;;;5.23;;
86209;SDS011;76865;50.756;3.366;2024-03-08T08:52:31;8.63;;;5.15;;
86209;SDS011;76865;50.756;3.366;2024-03-08T08:54:58;8.52;;;4.70;;
86209;SDS011;76865;50.756;3.366;2024-03-08T08:57:25;8.10;;;5.10;;
86209;SDS011;76865;50.756;3.366;2024-03-08T08:59:54;8.40;;;5.10;;
86209;SDS011;76865;50.756;3.366;2024-03-08T09:02:22;9.20;;;5.30;;
86209;SDS011;76865;50.756;3.366;2024-03-08T09:04:51;8.65;;;5.30;;
86209;SDS011;76865;50.756;3.366;2024-03-08T09:07:18;7.40;;;4.82;;
86209;SDS011;76865;50.756;3.366;2024-03-08T09:09:45;9.35;;;5.18;;
86209;SDS011;76865;50.756;3.366;2024-03-08T09:12:12;8.93;;;4.93;;
86209;SDS011;76865;50.756;3.366;2024-03-08T09:14:39;8.87;;;5.40;;
86209;SDS011;76865;50.756;3.366;2024-03-08T09:17:08;11.68;;;5.32;;
86209;SDS011;76865;50.756;3.366;2024-03-08T09:19:35;9.13;;;4.88;;
86209;SDS011;76865;50.756;3.366;2024-03-08T09:22:02;8.65;;;4.88;;
86209;SDS011;76865;50.756;3.366;2024-03-08T09:24:29;7.45;;;4.90;;
86209;SDS011;76865;50.756;3.366;2024-03-08T09:26:56;7.67;;;4.60;;
86209;SDS011;76865;50.756;3.366;2024-03-08T09:29:25;8.40;;;4.60;;
86209;SDS011;76865;50.756;3.366;2024-03-08T09:31:52;8.75;;;5.22;;
86209;SDS011;76865;50.756;3.366;2024-03-08T09:34:20;7.70;;;4.70;;
86209;SDS011;76865;50.756;3.366;2024-03-08T09:36:47;7.80;;;4.57;;
86209;SDS011;76865;50.756;3.366;2024-03-08T09:39:16;7.67;;;4.83;;
86209;SDS011;76865;50.756;3.366;2024-03-08T09:41:45;7.45;;;4.63;;
86209;SDS011;76865;50.756;3.366;2024-03-08T09:44:13;8.10;;;4.25;;
86209;SDS011;76865;50.756;3.366;2024-03-08T09:46:40;9.10;;;4.97;;
86209;SDS011;76865;50.756;3.366;2024-03-08T09:49:07;7.88;;;5.00;;
86209;SDS011;76865;50.756;3.366;2024-03-08T09:51:38;9.13;;;4.83;;
86209;SDS011;76865;50.756;3.366;2024-03-08T09:54:07;7.72;;;4.85;;
86209;SDS011;76865;50.756;3.366;2024-03-08T09:56:34;7.95;;;4.80;;
86209;SDS011;76865;50.756;3.366;2024-03-08T09:59:01;7.57;;;4.60;;
86209;SDS011;76865;50.756;3.366;2024-03-08T10:02:09;7.60;;;4.45;;
86209;SDS011;76865;50.756;3.366;2024-03-08T10:04:40;8.13;;;4.73;;
86209;SDS011;76865;50.756;3.366;2024-03-08T10:07:10;8.13;;;4.32;;
86209;SDS011;76865;50.756;3.366;2024-03-08T10:09:37;8.45;;;4.85;;
86209;SDS011;76865;50.756;3.366;2024-03-08T10:12:04;8.63;;;4.80;;
86209;SDS011;76865;50.756;3.366;2024-03-08T10:14:31;9.13;;;4.82;;
86209;SDS011;76865;50.756;3.366;2024-03-08T10:16:59;7.33;;;4.57;;
86209;SDS011;76865;50.756;3.366;2024-03-08T10:19:26;8.48;;;4.57;;
86209;SDS011;76865;50.756;3.366;2024-03-08T10:21:56;8.48;;;4.45;;
86209;SDS011;76865;50.756;3.366;2024-03-08T10:24:25;7.20;;;4.45;;
86209;SDS011;76865;50.756;3.366;2024-03-08T10:26:52;8.00;;;4.60;;
86209;SDS011;76865;50.756;3.366;2024-03-08T10:29:20;7.17;;;4.33;;
86209;SDS011;76865;50.756;3.366;2024-03-08T10:31:47;7.88;;;4.65;;
86209;SDS011;76865;50.756;3.366;2024-03-08T10:34:15;8.00;;;4.90;;
86209;SDS011;76865;50.756;3.366;2024-03-08T10:36:42;7.47;;;4.82;;
86209;SDS011;76865;50.756;3.366;2024-03-08T10:39:12;8.88;;;5.15;;
86209;SDS011;76865;50.756;3.366;2024-03-08T10:41:44;8.00;;;4.33;;
86209;SDS011;76865;50.756;3.366;2024-03-08T10:44:15;8.10;;;4.55;;
86209;SDS011;76865;50.756;3.366;2024-03-08T10:46:53;8.10;;;4.40;;
86209;SDS011;76865;50.756;3.366;2024-03-08T10:49:23;7.88;;;4.57;;
86209;SDS011;76865;50.756;3.366;2024-03-08T10:51:52;8.68;;;5.15;;
86209;SDS011;76865;50.756;3.366;2024-03-08T10:54:19;7.80;;;4.27;;
86209;SDS011;76865;50.756;3.366;2024-03-08T10:56:49;7.03;;;4.35;;
86209;SDS011;76865;50.756;3.366;2024-03-08T10:59:16;7.00;;;4.32;;
86209;SDS011;76865;50.756;3.366;2024-03-08T11:01:44;6.80;;;4.20;;
86209;SDS011;76865;50.756;3.366;2024-03-08T11:04:11;6.97;;;4.10;;
86209;SDS011;76865;50.756;3.366;2024-03-08T11:06:42;9.00;;;5.20;;
86209;SDS011;76865;50.756;3.366;2024-03-08T11:11:54;8.35;;;4.70;;
86209;SDS011;76865;50.756;3.366;2024-03-08T11:14:44;7.70;;;4.15;;
86209;SDS011;76865;50.756;3.366;2024-03-08T11:17:14;8.55;;;4.43;;
86209;SDS011;76865;50.756;3.366;2024-03-08T11:19:46;6.33;;;3.70;;
86209;SDS011;76865;50.756;3.366;2024-03-08T11:22:20;7.75;;;4.20;;
86209;SDS011;76865;50.756;3.366;2024-03-08T11:24:49;7.72;;;4.32;;
86209;SDS011;76865;50.756;3.366;2024-03-08T11:27:17;7.95;;;4.60;;
86209;SDS011;76865;50.756;3.366;2024-03-08T11:29:51;7.35;;;4.32;;
86209;SDS011;76865;50.756;3.366;2024-03-08T11:32:27;7.87;;;4.67;;
86209;SDS011;76865;50.756;3.366;2024-03-08T11:34:54;7.45;;;4.32;;
86209;SDS011;76865;50.756;3.366;2024-03-08T11:37:21;8.25;;;4.65;;
86209;SDS011;76865;50.756;3.366;2024-03-08T11:39:49;7.13;;;4.20;;
86209;SDS011;76865;50.756;3.366;2024-03-08T11:42:18;7.55;;;4.55;;
86209;SDS011;76865;50.756;3.366;2024-03-08T11:44:45;7.53;;;4.40;;
86209;SDS011;76865;50.756;3.366;2024-03-08T11:47:13;7.70;;;4.20;;
86209;SDS011;76865;50.756;3.366;2024-03-08T11:49:41;6.38;;;3.92;;
86209;SDS011;76865;50.756;3.366;2024-03-08T11:52:10;7.22;;;4.40;;
86209;SDS011;76865;50.756;3.366;2024-03-08T11:54:47;7.95;;;4.25;;
86209;SDS011;76865;50.756;3.366;2024-03-08T11:57:18;7.00;;;4.30;;
86209;SDS011;76865;50.756;3.366;2024-03-08T11:59:49;8.52;;;4.88;;
86209;SDS011;76865;50.756;3.366;2024-03-08T12:02:16;6.78;;;3.97;;
86209;SDS011;76865;50.756;3.366;2024-03-08T12:04:45;7.70;;;4.40;;
86209;SDS011;76865;50.756;3.366;2024-03-08T12:07:12;7.43;;;4.53;;
86209;SDS011;76865;50.756;3.366;2024-03-08T12:09:40;8.60;;;4.67;;
86209;SDS011;76865;50.756;3.366;2024-03-08T12:12:12;7.15;;;4.22;;
86209;SDS011;76865;50.756;3.366;2024-03-08T12:14:40;7.00;;;4.05;;
86209;SDS011;76865;50.756;3.366;2024-03-08T12:17:10;7.82;;;4.45;;
86209;SDS011;76865;50.756;3.366;2024-03-08T12:19:37;7.60;;;4.35;;
86209;SDS011;76865;50.756;3.366;2024-03-08T12:22:08;7.00;;;4.60;;
86209;SDS011;76865;50.756;3.366;2024-03-08T12:24:37;7.25;;;4.20;;
86209;SDS011;76865;50.756;3.366;2024-03-08T12:27:17;8.43;;;4.43;;
86209;SDS011;76865;50.756;3.366;2024-03-08T12:29:45;8.10;;;4.40;;
86209;SDS011;76865;50.756;3.366;2024-03-08T12:32:12;6.72;;;3.97;;
86209;SDS011;76865;50.756;3.366;2024-03-08T12:34:41;7.20;;;4.30;;
86209;SDS011;76865;50.756;3.366;2024-03-08T12:37:11;7.70;;;4.45;;
86209;SDS011;76865;50.756;3.366;2024-03-08T12:39:40;7.03;;;4.10;;
86209;SDS011;76865;50.756;3.366;2024-03-08T12:42:07;7.05;;;4.25;;
86209;SDS011;76865;50.756;3.366;2024-03-08T12:44:36;6.93;;;3.97;;
86209;SDS011;76865;50.756;3.366;2024-03-08T12:47:11;6.60;;;4.00;;
86209;SDS011;76865;50.756;3.366;2024-03-08T12:49:38;6.72;;;4.13;;
86209;SDS011;76865;50.756;3.366;2024-03-08T12:52:08;7.55;;;4.30;;
86209;SDS011;76865;50.756;3.366;2024-03-08T12:54:35;6.93;;;4.13;;
86209;SDS011;76865;50.756;3.366;2024-03-08T12:57:02;6.93;;;3.97;;
86209;SDS011;76865;50.756;3.366;2024-03-08T12:59:30;6.70;;;4.10;;
86209;SDS011;76865;50.756;3.366;2024-03-08T13:01:57;7.07;;;4.18;;
86209;SDS011;76865;50.756;3.366;2024-03-08T13:06:58;6.88;;;3.70;;
86209;SDS011;76865;50.756;3.366;2024-03-08T13:09:27;6.82;;;3.60;;
86209;SDS011;76865;50.756;3.366;2024-03-08T13:11:54;7.00;;;3.97;;
86209;SDS011;76865;50.756;3.366;2024-03-08T13:14:24;6.95;;;4.20;;
86209;SDS011;76865;50.756;3.366;2024-03-08T13:16:51;6.60;;;3.83;;
86209;SDS011;76865;50.756;3.366;2024-03-08T13:19:20;6.82;;;3.95;;
86209;SDS011;76865;50.756;3.366;2024-03-08T13:21:47;7.07;;;4.25;;
86209;SDS011;76865;50.756;3.366;2024-03-08T13:24:17;6.93;;;3.97;;
86209;SDS011;76865;50.756;3.366;2024-03-08T13:26:44;7.97;;;4.43;;
86209;SDS011;76865;50.756;3.366;2024-03-08T13:29:12;6.88;;;4.00;;
86209;SDS011;76865;50.756;3.366;2024-03-08T13:31:40;6.97;;;4.10;;
86209;SDS011;76865;50.756;3.366;2024-03-08T13:34:07;6.85;;;4.03;;
86209;SDS011;76865;50.756;3.366;2024-03-08T13:36:38;7.23;;;4.10;;
86209;SDS011;76865;50.756;3.366;2024-03-08T13:39:09;7.60;;;4.43;;
86209;SDS011;76865;50.756;3.366;2024-03-08T13:41:42;7.55;;;4.07;;
86209;SDS011;76865;50.756;3.366;2024-03-08T13:44:10;7.28;;;4.00;;
86209;SDS011;76865;50.756;3.366;2024-03-08T13:46:38;7.30;;;4.15;;
86209;SDS011;76865;50.756;3.366;2024-03-08T13:49:05;6.83;;;4.00;;
86209;SDS011;76865;50.756;3.366;2024-03-08T13:51:33;6.03;;;3.75;;
86209;SDS011;76865;50.756;3.366;2024-03-08T13:54:00;6.85;;;4.18;;
86209;SDS011;76865;50.756;3.366;2024-03-08T13:56:28;6.65;;;3.78;;
86209;SDS011;76865;50.756;3.366;2024-03-08T13:58:58;8.32;;;3.97;;
86209;SDS011;76865;50.756;3.366;2024-03-08T14:01:25;7.17;;;4.10;;
86209;SDS011;76865;50.756;3.366;2024-03-08T14:03:52;6.28;;;3.88;;
86209;SDS011;76865;50.756;3.366;2024-03-08T14:06:19;7.18;;;3.70;;
86209;SDS011;76865;50.756;3.366;2024-03-08T14:08:55;6.90;;;4.00;;
86209;SDS011;76865;50.756;3.366;2024-03-08T14:11:29;7.43;;;4.32;;
86209;SDS011;76865;50.756;3.366;2024-03-08T14:13:57;8.07;;;4.30;;
86209;SDS011;76865;50.756;3.366;2024-03-08T14:16:25;7.53;;;4.20;;
86209;SDS011;76865;50.756;3.366;2024-03-08T14:18:52;9.25;;;4.13;;
86209;SDS011;76865;50.756;3.366;2024-03-08T14:21:19;7.68;;;4.00;;
86209;SDS011;76865;50.756;3.366;2024-03-08T14:23:47;7.30;;;3.80;;
86209;SDS011;76865;50.756;3.366;2024-03-08T14:26:16;7.33;;;4.00;;
86209;SDS011;76865;50.756;3.366;2024-03-08T14:28:43;6.43;;;3.70;;
86209;SDS011;76865;50.756;3.366;2024-03-08T14:31:12;6.70;;;3.92;;
86209;SDS011;76865;50.756;3.366;2024-03-08T14:33:44;7.63;;;4.10;;
86209;SDS011;76865;50.756;3.366;2024-03-08T14:36:14;7.22;;;3.90;;
86209;SDS011;76865;50.756;3.366;2024-03-08T14:38:42;7.07;;;3.70;;
86209;SDS011;76865;50.756;3.366;2024-03-08T14:41:09;7.47;;;4.10;;
86209;SDS011;76865;50.756;3.366;2024-03-08T14:43:37;6.70;;;3.70;;
86209;SDS011;76865;50.756;3.366;2024-03-08T14:46:04;6.65;;;3.75;;
86209;SDS011;76865;50.756;3.366;2024-03-08T14:48:32;6.97;;;3.72;;
86209;SDS011;76865;50.756;3.366;2024-03-08T14:51:03;6.60;;;3.97;;
86209;SDS011;76865;50.756;3.366;2024-03-08T14:53:30;7.10;;;4.05;;
86209;SDS011;76865;50.756;3.366;2024-03-08T14:55:57;8.50;;;4.03;;
86209;SDS011;76865;50.756;3.366;2024-03-08T14:58:25;6.50;;;3.78;;